Terminal Aerodrome Forecast
Issued by NWS

Home | Current Version | Previous Version | Text Only | Print | Product List | Glossary On
Versions: 1 2 3 4 5 6 7 8 9 10 11 12 13 14 15 16 17 18
000
FTUS42 KJAX 272139 AAA
TAFCRG
TAF AMD
KCRG 272139Z 2722/2818 07010KT P6SM VCSH SCT020 BKN030 BKN060
     FM272300 08011KT P6SM SCT030 SCT250
     FM280300 07006KT P6SM FEW030 SCT250
     FM281400 08011KT P6SM VCSH SCT025 BKN035=

USA.gov is the U.S. government's official web portal to all federal, state and local government web resources and services.